Time;durP1;ratioP1;P1;durP2;ratioP2;P2;SDS_P1;SDS_P2;PMS_P1;PMS_P2;Temp;Humidity;BMP_temperature;BMP_pressure;BME280_temperature;BME280_humidity;BME280_pressure;Samples;Min_cycle;Max_cycle;Signal;HPM_P1;HPM_P2
2022/09/01 00:01:20;;;;;;;6.10;2.58;;;13.60;99.90;;;;;;4974806;28;20034;-80
2022/09/01 00:03:48;;;;;;;6.40;2.03;;;13.60;99.90;;;;;;4979613;28;20046;-80
2022/09/01 00:06:21;;;;;;;2.60;1.85;;;13.60;99.90;;;;;;4982162;28;20038;-78
2022/09/01 00:08:50;;;;;;;2.97;1.60;;;13.60;99.90;;;;;;4997373;28;20066;-77
2022/09/01 00:11:16;;;;;;;4.23;2.03;;;13.60;99.90;;;;;;4983438;28;20125;-78
2022/09/01 00:13:42;;;;;;;6.13;2.47;;;13.60;99.90;;;;;;4987687;28;20049;-80
2022/09/01 00:16:10;;;;;;;2.50;1.10;;;13.50;99.90;;;;;;4982628;28;20043;-82
2022/09/01 00:18:36;;;;;;;1.77;1.63;;;13.60;99.90;;;;;;4988511;28;20100;-80
2022/09/01 00:21:02;;;;;;;10.38;3.22;;;13.60;99.90;;;;;;4993459;28;20055;-80
2022/09/01 00:23:28;;;;;;;5.68;1.48;;;13.50;99.90;;;;;;4982421;28;20062;-79
2022/09/01 00:25:54;;;;;;;3.35;1.48;;;13.50;99.90;;;;;;4995531;28;20038;-80
2022/09/01 00:28:20;;;;;;;1.00;0.75;;;13.50;99.90;;;;;;4993525;28;20506;-80
2022/09/01 00:30:46;;;;;;;4.40;1.52;;;13.60;99.90;;;;;;4988800;28;20442;-80
2022/09/01 00:33:11;;;;;;;5.57;2.00;;;13.70;99.90;;;;;;4987682;28;20053;-80
2022/09/01 00:35:37;;;;;;;3.22;1.60;;;13.60;99.90;;;;;;4997424;28;20038;-81
2022/09/01 00:38:03;;;;;;;2.42;1.35;;;13.60;99.90;;;;;;4986653;28;20050;-80
2022/09/01 00:40:28;;;;;;;5.05;2.15;;;13.60;99.90;;;;;;4981670;28;20087;-80
2022/09/01 00:42:54;;;;;;;5.72;2.55;;;13.60;99.90;;;;;;4987400;28;20050;-79
2022/09/01 00:45:20;;;;;;;1.80;1.15;;;13.60;99.90;;;;;;4985318;28;20097;-80
2022/09/01 00:47:47;;;;;;;2.88;1.40;;;13.60;99.90;;;;;;4985083;28;20065;-79
2022/09/01 00:50:15;;;;;;;2.90;1.02;;;13.60;99.90;;;;;;4994995;28;20042;-80
2022/09/01 00:52:49;;;;;;;1.50;0.90;;;13.60;99.90;;;;;;4985959;28;20046;-80
2022/09/01 00:55:21;;;;;;;1.55;1.30;;;13.60;99.90;;;;;;4986153;28;20042;-80
2022/09/01 00:57:48;;;;;;;3.28;1.27;;;13.70;99.90;;;;;;4984648;28;20044;-80
2022/09/01 01:00:20;;;;;;;9.02;2.25;;;13.70;99.90;;;;;;4988604;28;20093;-81
2022/09/01 01:02:48;;;;;;;1.80;0.70;;;13.70;99.90;;;;;;4990858;28;20054;-80
2022/09/01 01:05:14;;;;;;;3.03;0.90;;;13.50;99.90;;;;;;4987834;28;20046;-80
2022/09/01 01:07:43;;;;;;;2.58;0.80;;;13.50;99.90;;;;;;4984211;28;20053;-77
2022/09/01 01:10:11;;;;;;;5.82;1.63;;;13.50;99.90;;;;;;4984159;28;20075;-81
2022/09/01 01:12:39;;;;;;;0.95;0.88;;;13.50;99.90;;;;;;4985747;28;20112;-77
2022/09/01 01:15:07;;;;;;;6.88;1.63;;;13.60;99.90;;;;;;4982656;28;20178;-76
2022/09/01 01:17:34;;;;;;;9.32;1.35;;;13.50;99.90;;;;;;4985828;28;20050;-80
2022/09/01 01:23:07;;;;;;;1.25;1.02;;;13.40;99.90;;;;;;4995945;28;20452;-79
2022/09/01 01:25:43;;;;;;;1.20;1.10;;;13.50;99.90;;;;;;4996478;28;20461;-80
2022/09/01 01:28:11;;;;;;;1.17;1.10;;;13.50;99.90;;;;;;4990839;28;20034;-80
2022/09/01 01:30:40;;;;;;;2.38;1.00;;;13.50;99.90;;;;;;4992145;28;20089;-80
2022/09/01 01:33:06;;;;;;;1.27;0.90;;;13.40;99.90;;;;;;4985600;28;20046;-79
2022/09/01 01:35:32;;;;;;;3.90;1.02;;;13.50;99.90;;;;;;4989584;28;20138;-80
2022/09/01 01:38:00;;;;;;;1.73;1.05;;;13.40;99.90;;;;;;4986986;28;20132;-80
2022/09/01 01:40:28;;;;;;;2.33;1.20;;;13.50;99.90;;;;;;4985377;28;20042;-80
2022/09/01 01:42:55;;;;;;;2.33;1.08;;;13.40;99.90;;;;;;4982487;28;20057;-80
2022/09/01 01:45:23;;;;;;;1.88;1.35;;;13.30;99.90;;;;;;4997256;28;20390;-80
2022/09/01 01:47:52;;;;;;;2.00;1.10;;;13.40;99.90;;;;;;4987898;28;20113;-79
2022/09/01 01:50:32;;;;;;;2.05;1.35;;;13.40;99.90;;;;;;4989178;28;20050;-82
2022/09/01 01:52:59;;;;;;;;;;;13.40;99.90;;;;;;4987996;28;20287;-79
2022/09/01 01:55:27;;;;;;;6.15;0.80;;;13.40;99.90;;;;;;4985781;28;19925;-82
2022/09/01 01:57:55;;;;;;;0.93;0.77;;;13.30;99.90;;;;;;4986180;28;20042;-79
2022/09/01 02:00:24;;;;;;;2.03;1.13;;;13.30;99.90;;;;;;4996320;28;20104;-82
2022/09/01 02:02:53;;;;;;;2.50;1.40;;;13.30;99.90;;;;;;4984228;28;20060;-81
2022/09/01 02:05:23;;;;;;;2.83;1.00;;;13.30;99.90;;;;;;4979788;28;20058;-79
2022/09/01 02:07:50;;;;;;;;;;;13.30;99.90;;;;;;4985236;28;20363;-80
2022/09/01 02:10:16;;;;;;;1.20;1.02;;;13.20;99.90;;;;;;4985318;28;19992;-79
2022/09/01 02:12:42;;;;;;;1.63;1.30;;;13.30;99.90;;;;;;5000620;28;22178;-80
2022/09/01 02:15:10;;;;;;;2.20;1.73;;;13.20;99.90;;;;;;4981547;28;20410;-80
2022/09/01 02:17:38;;;;;;;1.10;1.00;;;13.10;99.90;;;;;;4998232;28;20120;-79
2022/09/01 02:20:05;;;;;;;4.20;1.15;;;13.10;99.90;;;;;;4988058;28;20045;-80
2022/09/01 02:22:31;;;;;;;1.23;1.10;;;13.10;99.90;;;;;;4987919;28;20058;-81
2022/09/01 02:24:59;;;;;;;2.55;1.20;;;13.10;99.90;;;;;;4974005;28;20046;-80
2022/09/01 02:27:28;;;;;;;3.00;1.92;;;13.10;99.90;;;;;;4991761;28;20121;-81
2022/09/01 02:29:54;;;;;;;1.27;1.17;;;13.10;99.90;;;;;;4984897;28;20058;-80
2022/09/01 02:32:20;;;;;;;2.45;1.60;;;13.00;99.90;;;;;;5003499;28;20092;-80
2022/09/01 02:34:52;;;;;;;1.50;1.08;;;13.00;99.90;;;;;;4988613;28;20037;-79
2022/09/01 02:37:24;;;;;;;1.98;1.30;;;13.00;99.90;;;;;;4989946;28;20121;-80
2022/09/01 02:39:52;;;;;;;3.15;1.45;;;12.90;99.90;;;;;;4996370;28;20050;-80
2022/09/01 02:42:26;;;;;;;1.20;1.10;;;13.00;99.90;;;;;;4996917;28;20052;-79
2022/09/01 02:44:55;;;;;;;5.85;1.42;;;13.00;99.90;;;;;;4990413;28;20056;-78
2022/09/01 02:47:27;;;;;;;1.60;1.30;;;13.00;99.90;;;;;;4988440;28;20065;-80
2022/09/01 02:49:53;;;;;;;1.30;0.85;;;13.00;99.90;;;;;;4988957;28;20029;-80
2022/09/01 02:52:21;;;;;;;1.20;1.10;;;13.10;99.90;;;;;;4995382;28;20046;-79
2022/09/01 02:54:48;;;;;;;3.05;1.20;;;13.00;99.90;;;;;;4982836;28;20497;-80
2022/09/01 02:57:15;;;;;;;1.33;1.05;;;13.00;99.90;;;;;;4993834;28;20037;-80
2022/09/01 02:59:41;;;;;;;1.48;1.25;;;13.00;99.90;;;;;;4989867;28;20124;-81
2022/09/01 03:02:08;;;;;;;2.25;1.13;;;13.00;99.90;;;;;;4982438;28;20093;-79
2022/09/01 03:04:35;;;;;;;3.47;1.02;;;13.00;99.90;;;;;;4983332;28;20054;-80
2022/09/01 03:07:03;;;;;;;1.98;1.10;;;13.10;99.90;;;;;;4991684;28;20084;-81
2022/09/01 03:09:31;;;;;;;1.40;1.30;;;13.00;99.90;;;;;;4984561;28;20089;-81
2022/09/01 03:11:57;;;;;;;2.17;1.02;;;13.00;99.90;;;;;;4980299;28;20057;-81
2022/09/01 03:14:24;;;;;;;1.95;1.15;;;13.00;99.90;;;;;;4982719;28;20044;-81
2022/09/01 03:16:51;;;;;;;2.15;1.38;;;13.00;99.90;;;;;;4979873;28;20045;-80
2022/09/01 03:19:17;;;;;;;6.88;2.00;;;13.00;99.90;;;;;;4987392;28;20049;-81
2022/09/01 03:21:45;;;;;;;3.47;1.67;;;13.10;99.90;;;;;;4987757;28;20073;-79
2022/09/01 03:24:15;;;;;;;2.35;2.00;;;13.10;99.90;;;;;;4988151;28;20050;-81
2022/09/01 03:26:42;;;;;;;;;;;13.10;99.90;;;;;;4984264;28;20117;-79
2022/09/01 03:29:07;;;;;;;4.10;2.35;;;13.10;99.90;;;;;;4985146;28;19925;-79
2022/09/01 03:31:34;;;;;;;2.10;1.50;;;13.10;99.90;;;;;;4990942;28;20053;-78
2022/09/01 03:34:02;;;;;;;1.60;1.35;;;13.10;99.90;;;;;;4995875;28;20137;-79
2022/09/01 03:36:29;;;;;;;2.30;1.63;;;13.10;99.90;;;;;;4989811;28;20058;-80
2022/09/01 03:38:56;;;;;;;6.68;1.58;;;13.10;99.90;;;;;;4997084;28;20054;-79
2022/09/01 03:41:27;;;;;;;2.08;1.70;;;13.10;99.90;;;;;;4990345;28;20509;-79
2022/09/01 03:43:57;;;;;;;5.30;1.58;;;13.00;99.90;;;;;;4984184;28;20133;-78
2022/09/01 03:46:25;;;;;;;1.70;1.42;;;13.10;99.90;;;;;;4979562;28;20042;-80
2022/09/01 03:48:57;;;;;;;1.73;1.42;;;13.00;99.90;;;;;;4984070;28;20042;-77
2022/09/01 03:51:24;;;;;;;2.03;1.42;;;13.00;99.90;;;;;;4979729;28;20365;-80
2022/09/01 03:53:55;;;;;;;11.48;2.25;;;13.00;99.90;;;;;;4996209;28;20500;-79
2022/09/01 03:56:24;;;;;;;4.75;1.52;;;13.00;99.90;;;;;;4983483;28;20031;-79
2022/09/01 03:58:51;;;;;;;1.92;1.38;;;13.00;99.90;;;;;;4982129;28;20374;-77
2022/09/01 04:01:18;;;;;;;1.13;1.00;;;13.00;99.90;;;;;;4984985;28;20041;-79
2022/09/01 04:03:46;;;;;;;5.75;1.27;;;13.00;99.90;;;;;;4986983;28;20409;-79
2022/09/01 04:06:12;;;;;;;3.45;1.30;;;13.00;99.90;;;;;;4983184;28;20042;-80
2022/09/01 04:08:39;;;;;;;4.28;1.50;;;12.90;99.90;;;;;;4993388;28;20539;-80
2022/09/01 04:11:12;;;;;;;1.92;1.27;;;12.90;99.90;;;;;;4987130;28;20126;-77
2022/09/01 04:13:39;;;;;;;2.70;1.58;;;12.90;99.90;;;;;;4986311;28;20054;-79
2022/09/01 04:18:03;;;;;;;1.70;1.40;;;13.00;99.90;;;;;;4983866;28;20058;-81
2022/09/01 04:18:55;;;;;;;2.75;1.52;;;12.90;99.90;;;;;;4988117;28;20069;-79
2022/09/01 04:21:21;;;;;;;2.47;1.77;;;12.80;99.90;;;;;;4994882;28;20027;-80
2022/09/01 04:23:47;;;;;;;2.10;1.50;;;12.80;99.90;;;;;;4987659;28;20160;-79
2022/09/01 04:26:19;;;;;;;3.42;1.40;;;12.80;99.90;;;;;;5004870;28;20046;-79
2022/09/01 04:28:49;;;;;;;2.70;1.80;;;12.80;99.90;;;;;;4993272;28;20134;-79
2022/09/01 04:31:20;;;;;;;2.17;1.63;;;12.80;99.90;;;;;;4991625;28;20038;-79
2022/09/01 04:33:51;;;;;;;1.60;1.50;;;12.80;99.90;;;;;;4986817;28;20054;-80
2022/09/01 04:36:26;;;;;;;2.10;1.80;;;12.80;99.90;;;;;;4988079;28;20042;-80
2022/09/01 04:38:59;;;;;;;1.70;1.45;;;12.80;99.90;;;;;;4997265;28;20511;-79
2022/09/01 04:41:30;;;;;;;1.92;1.50;;;12.70;99.90;;;;;;4999357;28;20081;-79
2022/09/01 04:43:58;;;;;;;2.65;1.20;;;12.70;99.90;;;;;;4997646;28;20058;-80
2022/09/01 04:46:28;;;;;;;2.88;1.35;;;12.70;99.90;;;;;;4983313;28;20062;-80
2022/09/01 04:48:54;;;;;;;;;;;12.60;99.90;;;;;;4988513;28;20116;-77
2022/09/01 04:51:20;;;;;;;3.80;1.48;;;12.60;99.90;;;;;;4990541;28;19925;-79
2022/09/01 04:53:47;;;;;;;3.63;1.40;;;12.70;99.90;;;;;;4985318;28;20097;-78
2022/09/01 04:56:18;;;;;;;1.63;1.48;;;12.60;99.90;;;;;;4996781;28;20443;-79
2022/09/01 04:58:48;;;;;;;1.70;1.60;;;12.50;99.90;;;;;;4993900;28;20134;-79
2022/09/01 05:01:25;;;;;;;3.40;1.30;;;12.50;99.90;;;;;;4989127;28;20042;-78
2022/09/01 05:04:00;;;;;;;2.70;1.98;;;12.50;99.90;;;;;;4994502;28;20138;-79
2022/09/01 05:06:28;;;;;;;4.57;2.00;;;12.40;99.90;;;;;;4989123;28;20054;-79
2022/09/01 05:08:56;;;;;;;1.95;1.73;;;12.50;99.90;;;;;;4982488;28;20038;-80
2022/09/01 05:11:22;;;;;;;1.60;1.20;;;12.50;99.90;;;;;;4991978;28;20049;-78
2022/09/01 05:13:49;;;;;;;2.13;1.65;;;12.40;99.90;;;;;;4982946;28;20405;-80
2022/09/01 05:16:18;;;;;;;4.32;1.98;;;12.50;99.90;;;;;;4981458;28;21418;-77
2022/09/01 05:18:46;;;;;;;3.17;1.50;;;12.40;99.90;;;;;;4986109;28;20137;-78
2022/09/01 05:21:15;;;;;;;4.20;2.45;;;12.50;99.90;;;;;;4988185;28;20086;-79
2022/09/01 05:23:45;;;;;;;2.25;1.70;;;12.40;99.90;;;;;;4985553;28;20061;-81
2022/09/01 05:26:20;;;;;;;11.18;2.28;;;12.40;99.90;;;;;;4982607;28;20117;-80
2022/09/01 05:28:48;;;;;;;2.55;1.92;;;12.40;99.90;;;;;;4985767;28;20113;-80
2022/09/01 05:31:18;;;;;;;2.15;1.40;;;12.40;99.90;;;;;;4999880;28;20053;-79
2022/09/01 05:33:48;;;;;;;4.35;1.60;;;12.50;99.90;;;;;;4987145;28;20046;-80
2022/09/01 05:36:21;;;;;;;6.45;1.92;;;12.90;99.90;;;;;;4983313;28;20413;-79
2022/09/01 05:38:50;;;;;;;3.33;1.60;;;12.80;99.90;;;;;;4987552;28;20145;-79
2022/09/01 05:41:19;;;;;;;3.10;1.70;;;12.90;99.90;;;;;;4986585;28;20690;-79
2022/09/01 05:43:48;;;;;;;3.65;1.58;;;12.80;99.90;;;;;;4993670;28;20136;-80
2022/09/01 05:46:28;;;;;;;9.48;2.72;;;12.90;99.90;;;;;;4983776;28;20039;-80
2022/09/01 05:48:55;;;;;;;3.03;1.88;;;12.90;99.90;;;;;;4984940;28;20054;-79
2022/09/01 05:51:25;;;;;;;3.67;1.80;;;13.00;99.90;;;;;;4988177;28;20077;-79
2022/09/01 05:53:53;;;;;;;;;;;13.00;99.90;;;;;;5001793;28;20101;-79
2022/09/01 05:56:19;;;;;;;1.45;1.35;;;13.00;99.90;;;;;;4984831;28;19932;-81
2022/09/01 05:58:47;;;;;;;5.38;2.80;;;13.10;99.90;;;;;;4984483;28;20054;-78
2022/09/01 06:01:20;;;;;;;3.45;1.38;;;13.20;99.90;;;;;;4983294;28;20064;-79
2022/09/01 06:03:49;;;;;;;3.50;1.63;;;13.30;99.90;;;;;;4985273;28;20302;-79
2022/09/01 06:06:16;;;;;;;2.80;1.38;;;13.30;99.90;;;;;;4987593;28;20496;-79
2022/09/01 06:08:47;;;;;;;2.22;1.70;;;13.40;99.90;;;;;;4998453;28;20049;-79
2022/09/01 06:11:16;;;;;;;3.80;1.38;;;13.60;99.90;;;;;;4988577;28;20030;-79
2022/09/01 06:13:46;;;;;;;2.33;1.30;;;13.70;99.90;;;;;;4985914;28;20100;-78
2022/09/01 06:16:14;;;;;;;1.65;1.23;;;13.70;99.90;;;;;;4989064;28;20048;-79
2022/09/01 06:18:42;;;;;;;2.30;1.80;;;13.70;99.90;;;;;;4986664;28;20361;-79
2022/09/01 06:21:13;;;;;;;3.80;1.50;;;13.80;99.90;;;;;;4973665;28;20568;-78
2022/09/01 06:23:44;;;;;;;4.20;1.63;;;13.80;99.90;;;;;;4982084;28;20133;-82
2022/09/01 06:26:26;;;;;;;3.05;1.67;;;13.90;99.90;;;;;;4988242;28;20482;-79
2022/09/01 06:28:53;;;;;;;2.97;1.83;;;14.00;99.90;;;;;;4988115;28;20537;-81
2022/09/01 06:31:32;;;;;;;5.15;1.25;;;14.00;99.90;;;;;;4999445;28;20052;-79
2022/09/01 06:34:01;;;;;;;4.05;1.50;;;14.00;99.90;;;;;;4995247;28;20142;-77
2022/09/01 06:36:28;;;;;;;3.10;2.10;;;14.10;99.90;;;;;;4983144;28;20424;-78
2022/09/01 06:38:54;;;;;;;8.10;4.50;;;14.10;99.90;;;;;;4986690;28;20093;-78
2022/09/01 06:41:22;;;;;;;4.50;1.48;;;14.10;99.90;;;;;;4984287;28;20564;-79
2022/09/01 06:43:54;;;;;;;2.83;1.45;;;14.20;99.90;;;;;;4983620;28;20055;-78
2022/09/01 06:46:22;;;;;;;4.82;2.15;;;14.40;99.90;;;;;;4966299;28;20051;-79
2022/09/01 06:48:48;;;;;;;6.03;2.00;;;14.40;99.90;;;;;;4985782;28;20046;-80
2022/09/01 06:51:21;;;;;;;2.58;1.92;;;14.50;99.90;;;;;;4983829;28;20393;-78
2022/09/01 06:53:55;;;;;;;1.77;1.67;;;14.50;99.90;;;;;;4995071;28;20042;-78
2022/09/01 06:56:32;;;;;;;2.35;1.50;;;14.60;99.90;;;;;;4990129;28;20075;-78
2022/09/01 06:58:58;;;;;;;2.08;1.70;;;14.80;99.90;;;;;;5003842;28;20184;-79
2022/09/01 07:01:26;;;;;;;2.30;1.35;;;14.80;99.90;;;;;;5004129;28;20460;-77
2022/09/01 07:03:54;;;;;;;3.00;1.70;;;15.10;99.90;;;;;;4988208;28;20492;-76
2022/09/01 07:06:29;;;;;;;3.70;1.50;;;14.90;99.90;;;;;;4987627;28;20054;-78
2022/09/01 07:08:57;;;;;;;1.60;1.17;;;14.80;99.90;;;;;;4978757;28;20421;-78
2022/09/01 07:11:29;;;;;;;3.38;1.70;;;14.80;99.90;;;;;;4979906;28;20038;-79
2022/09/01 07:14:00;;;;;;;3.13;1.70;;;14.80;99.90;;;;;;4972009;28;20072;-77
2022/09/01 07:16:28;;;;;;;2.75;2.05;;;14.90;99.90;;;;;;4969325;28;20076;-79
2022/09/01 07:18:57;;;;;;;4.22;2.03;;;15.00;99.90;;;;;;4981007;28;20073;-79
2022/09/01 07:21:24;;;;;;;3.05;1.63;;;15.30;99.90;;;;;;4960837;28;20385;-78
2022/09/01 07:23:50;;;;;;;3.25;1.80;;;15.60;99.90;;;;;;4977484;28;20085;-79
2022/09/01 07:26:19;;;;;;;2.25;1.58;;;15.90;99.90;;;;;;4986244;28;20069;-79
2022/09/01 07:28:45;;;;;;;3.77;1.67;;;16.00;99.90;;;;;;4979457;28;20078;-77
2022/09/01 07:31:23;;;;;;;3.45;1.67;;;16.10;99.90;;;;;;4976697;28;20309;-78
2022/09/01 07:33:50;;;;;;;2.05;1.20;;;16.10;99.90;;;;;;4977876;28;21775;-81
2022/09/01 07:36:19;;;;;;;1.77;1.52;;;16.10;99.90;;;;;;4980421;28;20095;-80
2022/09/01 07:38:50;;;;;;;3.50;1.45;;;15.80;99.90;;;;;;4982422;28;20401;-81
2022/09/01 07:41:16;;;;;;;4.30;1.70;;;16.00;99.90;;;;;;4979394;28;20069;-81
2022/09/01 07:43:43;;;;;;;2.60;1.42;;;16.10;99.90;;;;;;4978810;28;20149;-80
2022/09/01 07:46:10;;;;;;;2.17;1.40;;;16.40;99.90;;;;;;4980353;28;20056;-81
2022/09/01 07:48:37;;;;;;;2.75;1.67;;;16.80;99.90;;;;;;4980771;28;20101;-80
2022/09/01 07:51:03;;;;;;;3.50;2.22;;;17.00;99.90;;;;;;4983730;28;20046;-81
2022/09/01 07:53:32;;;;;;;1.75;1.35;;;17.10;99.90;;;;;;4981936;28;20137;-82
2022/09/01 07:56:05;;;;;;;10.40;2.10;;;17.20;99.90;;;;;;4984269;28;20045;-82
2022/09/01 07:58:32;;;;;;;1.52;1.38;;;17.20;99.90;;;;;;4986169;28;20046;-81
2022/09/01 08:01:01;;;;;;;4.10;1.60;;;17.30;99.90;;;;;;4977944;28;20050;-80
2022/09/01 08:03:28;;;;;;;6.28;2.00;;;17.40;99.90;;;;;;4980869;28;20057;-81
2022/09/01 08:05:59;;;;;;;4.13;1.67;;;17.50;99.90;;;;;;4984224;28;20042;-82
2022/09/01 08:08:26;;;;;;;2.63;1.25;;;17.50;99.90;;;;;;4982223;28;20133;-82
2022/09/01 08:10:52;;;;;;;1.75;1.20;;;17.70;99.90;;;;;;4980516;28;20557;-81
2022/09/01 08:13:18;;;;;;;1.25;1.00;;;17.70;99.90;;;;;;4976888;28;20050;-81
2022/09/01 08:15:44;;;;;;;3.83;1.40;;;17.60;99.90;;;;;;4976886;28;20053;-82
2022/09/01 08:18:10;;;;;;;3.13;1.38;;;17.90;99.90;;;;;;4980275;28;20473;-82
2022/09/01 08:20:43;;;;;;;2.67;1.23;;;17.90;99.90;;;;;;4977366;28;20038;-80
2022/09/01 08:23:11;;;;;;;3.20;1.33;;;18.00;99.90;;;;;;4978641;28;20053;-82
2022/09/01 08:25:38;;;;;;;2.40;0.90;;;18.10;99.90;;;;;;4981339;28;20456;-80
2022/09/01 08:28:05;;;;;;;3.92;1.02;;;18.40;99.90;;;;;;4978845;28;20038;-81
2022/09/01 08:30:31;;;;;;;7.95;1.98;;;18.40;99.90;;;;;;4980346;28;20053;-83
2022/09/01 08:32:57;;;;;;;4.05;1.33;;;18.50;99.90;;;;;;4978998;28;20469;-80
2022/09/01 08:35:23;;;;;;;2.65;1.65;;;18.60;99.90;;;;;;4980133;28;20050;-80
2022/09/01 08:37:49;;;;;;;2.40;1.10;;;18.70;99.90;;;;;;4978835;28;20041;-80
2022/09/01 08:40:19;;;;;;;1.80;1.10;;;18.80;99.90;;;;;;4980532;28;20046;-79
2022/09/01 08:43:06;;;;;;;2.00;1.65;;;18.70;99.90;;;;;;4979834;28;20093;-81
2022/09/01 08:45:41;;;;;;;3.75;1.20;;;18.70;99.90;;;;;;4993935;28;20138;-82
2022/09/01 08:48:33;;;;;;;4.15;1.13;;;18.80;99.90;;;;;;4977761;28;20568;-83
2022/09/01 08:51:10;;;;;;;1.90;1.15;;;18.80;99.90;;;;;;4964915;28;20107;-81
2022/09/01 08:53:53;;;;;;;5.57;1.13;;;18.90;99.90;;;;;;4984994;28;20121;-81
2022/09/01 08:56:20;;;;;;;1.83;0.98;;;19.00;99.90;;;;;;4987577;28;20173;-82
2022/09/01 08:58:46;;;;;;;5.22;1.27;;;19.10;99.90;;;;;;4974761;28;20046;-81
2022/09/01 09:01:33;;;;;;;6.72;1.40;;;19.30;99.90;;;;;;4996810;28;20053;-81
2022/09/01 09:04:20;;;;;;;2.00;1.02;;;19.20;99.90;;;;;;4984249;28;20524;-81
2022/09/01 09:07:01;;;;;;;2.97;0.80;;;19.40;99.90;;;;;;4986217;28;20092;-77
2022/09/01 09:09:40;;;;;;;3.45;0.77;;;19.50;99.90;;;;;;4984385;28;20047;-79
2022/09/01 09:12:35;;;;;;;2.05;1.40;;;19.60;99.90;;;;;;4983317;28;20104;-79
2022/09/01 09:15:11;;;;;;;1.77;1.35;;;19.60;99.90;;;;;;4978300;28;20042;-78
2022/09/01 09:17:45;;;;;;;2.88;1.20;;;19.80;99.90;;;;;;4993574;28;20047;-76
2022/09/01 09:20:10;;;;;;;3.83;1.02;;;19.70;99.90;;;;;;4981623;28;20145;-77
2022/09/01 09:22:37;;;;;;;4.38;0.77;;;19.80;99.90;;;;;;4982510;28;20441;-76
2022/09/01 09:25:11;;;;;;;1.38;0.73;;;19.90;99.90;;;;;;4987146;28;20049;-76
2022/09/01 09:27:42;;;;;;;1.42;0.60;;;20.00;99.90;;;;;;4960715;28;20042;-75
2022/09/01 09:30:11;;;;;;;1.15;0.85;;;20.10;99.90;;;;;;4986067;28;20401;-79
2022/09/01 09:32:48;;;;;;;4.93;0.80;;;20.10;99.90;;;;;;4987295;28;20034;-78
2022/09/01 09:35:25;;;;;;;1.20;0.60;;;20.30;99.90;;;;;;4980117;28;20053;-78
2022/09/01 09:37:51;;;;;;;3.67;0.70;;;20.20;99.90;;;;;;4999263;28;20046;-78
2022/09/01 09:40:25;;;;;;;2.15;0.73;;;20.20;99.90;;;;;;4985050;28;20069;-78
2022/09/01 09:42:54;;;;;;;3.35;1.33;;;20.60;99.90;;;;;;4982364;28;20405;-78
2022/09/01 09:45:37;;;;;;;1.95;0.50;;;20.80;99.90;;;;;;4984109;28;20185;-76
2022/09/01 09:48:24;;;;;;;3.72;0.82;;;20.60;99.90;;;;;;4984847;28;20041;-76
2022/09/01 09:50:50;;;;;;;1.95;1.05;;;20.80;99.90;;;;;;4968486;28;20043;-78
2022/09/01 09:53:26;;;;;;;2.15;0.45;;;20.90;99.90;;;;;;4986161;28;20027;-77
2022/09/01 09:56:00;;;;;;;2.05;0.85;;;21.00;99.90;;;;;;4986068;28;20137;-76
2022/09/01 09:58:36;;;;;;;0.80;0.50;;;21.10;99.90;;;;;;4985414;28;20505;-78
2022/09/01 10:01:29;;;;;;;1.67;0.73;;;21.20;99.90;;;;;;4983356;28;20046;-78
2022/09/01 10:03:57;;;;;;;2.13;0.75;;;21.30;99.90;;;;;;4984308;28;20046;-78
2022/09/01 10:06:39;;;;;;;2.28;0.60;;;21.20;99.90;;;;;;4984479;28;20073;-76
2022/09/01 10:09:15;;;;;;;2.05;0.60;;;21.40;99.90;;;;;;4985659;28;20058;-78
2022/09/01 10:11:43;;;;;;;2.35;0.68;;;21.50;99.90;;;;;;4985108;28;20041;-77
2022/09/01 10:14:22;;;;;;;2.92;0.70;;;21.70;99.90;;;;;;4980876;28;20065;-76
2022/09/01 10:16:54;;;;;;;0.80;0.52;;;21.30;99.90;;;;;;4988480;28;20114;-78
2022/09/01 10:19:21;;;;;;;1.40;0.45;;;21.50;99.90;;;;;;5006453;28;20050;-77
2022/09/01 10:21:47;;;;;;;2.85;0.63;;;21.50;99.90;;;;;;4999561;28;20088;-76
2022/09/01 10:24:32;;;;;;;0.80;0.60;;;21.50;99.90;;;;;;4986364;28;20509;-77
2022/09/01 10:27:09;;;;;;;0.88;0.50;;;21.30;99.90;;;;;;4989927;28;20057;-75
2022/09/01 10:29:42;;;;;;;2.50;1.15;;;21.50;99.90;;;;;;4984345;28;20105;-77
2022/09/01 10:32:15;;;;;;;1.02;0.52;;;21.60;99.90;;;;;;4986014;28;20520;-76
2022/09/01 10:34:41;;;;;;;2.17;0.55;;;21.60;99.90;;;;;;4987654;28;20038;-74
2022/09/01 10:37:07;;;;;;;1.38;0.47;;;21.80;99.90;;;;;;4996094;28;20913;-75
2022/09/01 10:39:33;;;;;;;0.85;0.40;;;21.90;99.90;;;;;;5005633;28;20089;-75
2022/09/01 10:42:06;;;;;;;3.63;0.20;;;21.40;99.90;;;;;;4979086;28;20455;-74
2022/09/01 10:44:43;;;;;;;0.38;0.25;;;21.70;99.90;;;;;;4984614;28;20074;-73
2022/09/01 10:47:28;;;;;;;3.05;0.50;;;21.90;99.90;;;;;;4984281;28;20053;-75
2022/09/01 10:49:54;;;;;;;2.15;0.65;;;22.00;99.90;;;;;;4984565;28;20515;-75
2022/09/01 10:52:41;;;;;;;3.08;0.60;;;21.70;99.90;;;;;;4986735;28;20414;-74
2022/09/01 10:55:31;;;;;;;0.80;0.47;;;21.30;99.90;;;;;;4977057;28;20038;-74
2022/09/01 10:58:35;;;;;;;5.83;0.73;;;21.20;99.90;;;;;;4980166;28;20120;-75
2022/09/01 11:01:01;;;;;;;2.75;0.68;;;21.00;99.90;;;;;;4976196;28;20433;-74
2022/09/01 11:03:47;;;;;;;1.67;0.40;;;21.30;99.90;;;;;;4986242;28;20046;-75
2022/09/01 11:06:49;;;;;;;7.47;0.80;;;21.10;99.90;;;;;;4978912;28;20042;-76
2022/09/01 11:09:20;;;;;;;4.95;0.45;;;20.90;99.90;;;;;;4990070;28;20050;-76
2022/09/01 11:11:58;;;;;;;1.45;0.45;;;20.80;99.90;;;;;;4983077;28;20046;-75
2022/09/01 11:14:25;;;;;;;0.63;0.40;;;21.20;99.90;;;;;;4984060;28;20226;-78
2022/09/01 11:17:14;;;;;;;2.60;0.60;;;21.80;99.90;;;;;;4983475;28;20038;-78
2022/09/01 11:19:43;;;;;;;0.95;0.50;;;21.40;99.90;;;;;;4983431;28;20046;-79
2022/09/01 11:22:12;;;;;;;1.42;0.47;;;20.90;99.90;;;;;;4985976;28;20054;-78
2022/09/01 11:24:37;;;;;;;0.57;0.22;;;21.00;99.90;;;;;;4981827;28;20050;-79
2022/09/01 11:27:05;;;;;;;1.23;0.30;;;21.00;99.90;;;;;;4981453;28;20050;-78
2022/09/01 11:30:15;;;;;;;1.05;0.30;;;21.30;99.90;;;;;;4982076;28;20532;-79
2022/09/01 11:32:41;;;;;;;1.73;0.57;;;21.50;99.90;;;;;;4964453;28;20632;-78
2022/09/01 11:35:17;;;;;;;0.88;0.50;;;21.50;99.90;;;;;;4983158;28;20054;-78
2022/09/01 11:37:46;;;;;;;1.55;0.40;;;21.60;99.90;;;;;;4984799;28;20108;-78
2022/09/01 11:40:28;;;;;;;2.08;0.70;;;21.90;99.90;;;;;;4985950;28;20417;-79
2022/09/01 11:42:56;;;;;;;0.93;0.50;;;22.20;99.90;;;;;;4964627;28;20492;-80
2022/09/01 11:45:29;;;;;;;0.60;0.50;;;21.80;99.90;;;;;;4986043;28;20408;-80
2022/09/01 11:48:08;;;;;;;1.38;0.82;;;21.60;99.90;;;;;;4984807;28;20092;-80
2022/09/01 11:50:40;;;;;;;3.45;0.35;;;21.30;99.90;;;;;;4978061;28;20042;-80
2022/09/01 11:53:14;;;;;;;0.40;0.35;;;21.20;99.90;;;;;;4983752;28;20054;-80
2022/09/01 11:55:44;;;;;;;1.65;0.32;;;21.10;99.90;;;;;;4984429;28;20038;-80
2022/09/01 11:58:12;;;;;;;2.03;0.50;;;21.70;99.90;;;;;;4983574;28;20045;-80
2022/09/01 12:00:40;;;;;;;5.97;0.50;;;22.20;99.90;;;;;;4984631;28;20051;-80
2022/09/01 12:03:21;;;;;;;2.70;0.43;;;22.50;99.90;;;;;;4985598;28;20045;-80
2022/09/01 12:05:58;;;;;;;1.33;0.30;;;22.90;99.90;;;;;;4967638;28;20046;-79
2022/09/01 12:08:26;;;;;;;1.50;0.50;;;23.00;99.90;;;;;;4985779;28;20047;-81
2022/09/01 12:11:02;;;;;;;3.28;0.55;;;23.00;99.90;;;;;;4987438;28;20172;-79
2022/09/01 12:13:28;;;;;;;1.25;0.35;;;22.80;99.90;;;;;;4996882;28;20042;-79
2022/09/01 12:15:59;;;;;;;1.17;0.57;;;22.60;99.90;;;;;;5004788;28;20448;-78
2022/09/01 12:18:29;;;;;;;1.10;0.85;;;22.20;99.90;;;;;;4986347;28;20393;-80
2022/09/01 12:20:58;;;;;;;0.88;0.52;;;22.30;99.90;;;;;;4983410;28;20245;-80
2022/09/01 12:23:41;;;;;;;1.85;0.50;;;22.60;99.90;;;;;;4980192;28;20037;-78
2022/09/01 12:26:13;;;;;;;5.20;1.42;;;22.30;99.90;;;;;;4993515;28;20472;-79
2022/09/01 12:28:40;;;;;;;3.03;0.50;;;22.10;99.90;;;;;;4994175;28;20077;-79
2022/09/01 12:31:24;;;;;;;2.65;0.50;;;22.00;99.90;;;;;;4983364;28;20132;-79
2022/09/01 12:33:51;;;;;;;1.75;0.57;;;21.90;99.90;;;;;;5008007;28;20038;-79
2022/09/01 12:36:36;;;;;;;2.63;0.50;;;21.90;99.90;;;;;;4999243;28;20092;-80
2022/09/01 12:39:16;;;;;;;1.33;0.38;;;22.30;99.90;;;;;;4988588;28;20129;-79
2022/09/01 12:41:45;;;;;;;2.95;0.50;;;22.70;99.90;;;;;;4987191;28;20113;-79
2022/09/01 12:44:50;;;;;;;2.03;0.43;;;23.00;99.90;;;;;;4984261;28;20051;-78
2022/09/01 12:47:34;;;;;;;1.48;0.75;;;23.00;99.90;;;;;;4998591;28;20116;-80
2022/09/01 12:50:02;;;;;;;1.45;0.40;;;22.80;99.90;;;;;;4999333;28;20452;-78
2022/09/01 12:52:30;;;;;;;2.88;0.50;;;22.40;99.90;;;;;;4991123;28;20042;-78
2022/09/01 12:55:02;;;;;;;2.33;0.60;;;22.40;99.90;;;;;;5002966;28;20046;-79
2022/09/01 12:57:34;;;;;;;4.25;0.50;;;22.20;99.90;;;;;;4978431;28;20046;-79
2022/09/01 13:00:22;;;;;;;2.95;0.70;;;22.30;99.90;;;;;;4988006;28;20054;-79
2022/09/01 13:02:49;;;;;;;4.38;0.45;;;22.60;99.90;;;;;;4986242;28;20089;-78
2022/09/01 13:05:29;;;;;;;2.15;1.08;;;22.70;99.90;;;;;;4987598;28;20497;-79
2022/09/01 13:08:04;;;;;;;1.15;0.50;;;22.90;99.90;;;;;;4990580;28;20506;-80
2022/09/01 13:10:36;;;;;;;2.22;0.63;;;22.30;99.90;;;;;;4988759;28;20412;-79